sensor_id;sensor_type;location;lat;lon;timestamp;pressure;altitude;pressure_sealevel;temperature;humidity
33189;BME280;52601;53.070;10.600;2023-02-16T00:00:50;101964.22;;;3.61;100.00
33189;BME280;52601;53.070;10.600;2023-02-16T00:03:35;101949.53;;;3.72;100.00
33189;BME280;52601;53.070;10.600;2023-02-16T00:06:22;101964.22;;;3.58;100.00
33189;BME280;52601;53.070;10.600;2023-02-16T00:09:08;101952.97;;;3.46;100.00
33189;BME280;52601;53.070;10.600;2023-02-16T00:11:53;101970.25;;;3.63;100.00
33189;BME280;52601;53.070;10.600;2023-02-16T00:14:58;101964.22;;;3.58;100.00
33189;BME280;52601;53.070;10.600;2023-02-16T00:17:43;101958.16;;;3.53;100.00
33189;BME280;52601;53.070;10.600;2023-02-16T00:20:29;101953.84;;;3.62;100.00
33189;BME280;52601;53.070;10.600;2023-02-16T00:23:15;101953.84;;;3.52;100.00
33189;BME280;52601;53.070;10.600;2023-02-16T00:26:01;101952.97;;;3.39;100.00
33189;BME280;52601;53.070;10.600;2023-02-16T00:28:53;101955.56;;;3.59;100.00
33189;BME280;52601;53.070;10.600;2023-02-16T00:31:39;101951.25;;;3.56;100.00
33189;BME280;52601;53.070;10.600;2023-02-16T00:37:13;101959.03;;;3.59;100.00
33189;BME280;52601;53.070;10.600;2023-02-16T00:39:59;101956.44;;;3.55;100.00
33189;BME280;52601;53.070;10.600;2023-02-16T00:42:46;101952.13;;;3.47;100.00
33189;BME280;52601;53.070;10.600;2023-02-16T00:45:35;101956.44;;;3.52;100.00
33189;BME280;52601;53.070;10.600;2023-02-16T00:48:22;101959.03;;;3.58;100.00
33189;BME280;52601;53.070;10.600;2023-02-16T00:51:09;101959.03;;;3.53;100.00
33189;BME280;52601;53.070;10.600;2023-02-16T00:54:10;101964.22;;;3.52;100.00
33189;BME280;52601;53.070;10.600;2023-02-16T00:56:56;101962.47;;;3.31;100.00
33189;BME280;52601;53.070;10.600;2023-02-16T00:59:41;101966.78;;;3.33;100.00
33189;BME280;52601;53.070;10.600;2023-02-16T01:02:28;101946.03;;;3.29;100.00
33189;BME280;52601;53.070;10.600;2023-02-16T01:05:13;101956.38;;;3.24;100.00
33189;BME280;52601;53.070;10.600;2023-02-16T01:07:59;101942.59;;;3.27;100.00
33189;BME280;52601;53.070;10.600;2023-02-16T01:11:04;101939.13;;;3.26;100.00
33189;BME280;52601;53.070;10.600;2023-02-16T01:13:52;101944.31;;;3.26;100.00
33189;BME280;52601;53.070;10.600;2023-02-16T01:16:40;101946.06;;;3.26;100.00
33189;BME280;52601;53.070;10.600;2023-02-16T01:19:26;101947.78;;;3.31;100.00
33189;BME280;52601;53.070;10.600;2023-02-16T01:22:12;101937.41;;;3.28;100.00
33189;BME280;52601;53.070;10.600;2023-02-16T01:24:57;101927.91;;;3.29;100.00
33189;BME280;52601;53.070;10.600;2023-02-16T01:27:43;101931.34;;;3.11;100.00
33189;BME280;52601;53.070;10.600;2023-02-16T01:30:29;101920.13;;;3.15;100.00
33189;BME280;52601;53.070;10.600;2023-02-16T01:33:15;101925.31;;;3.30;100.00
33189;BME280;52601;53.070;10.600;2023-02-16T01:36:00;101931.38;;;3.35;100.00
33189;BME280;52601;53.070;10.600;2023-02-16T01:38:46;101932.22;;;3.25;100.00
33189;BME280;52601;53.070;10.600;2023-02-16T01:41:55;101941.72;;;3.19;100.00
33189;BME280;52601;53.070;10.600;2023-02-16T01:44:48;101937.38;;;3.10;100.00
33189;BME280;52601;53.070;10.600;2023-02-16T01:47:46;101938.22;;;3.06;100.00
33189;BME280;52601;53.070;10.600;2023-02-16T01:50:42;101935.63;;;3.06;100.00
33189;BME280;52601;53.070;10.600;2023-02-16T01:53:36;101933.94;;;3.23;100.00
33189;BME280;52601;53.070;10.600;2023-02-16T01:56:35;101933.09;;;3.32;100.00
33189;BME280;52601;53.070;10.600;2023-02-16T01:59:40;101928.75;;;3.32;100.00
33189;BME280;52601;53.070;10.600;2023-02-16T02:02:28;101933.97;;;3.41;100.00
33189;BME280;52601;53.070;10.600;2023-02-16T02:05:28;101916.69;;;3.36;100.00
33189;BME280;52601;53.070;10.600;2023-02-16T02:08:42;101927.91;;;3.29;100.00
33189;BME280;52601;53.070;10.600;2023-02-16T02:11:33;101921.84;;;3.19;100.00
33189;BME280;52601;53.070;10.600;2023-02-16T02:14:25;101927.03;;;3.18;100.00
33189;BME280;52601;53.070;10.600;2023-02-16T02:17:15;101918.38;;;3.26;100.00
33189;BME280;52601;53.070;10.600;2023-02-16T02:20:17;101918.41;;;3.32;100.00
33189;BME280;52601;53.070;10.600;2023-02-16T02:23:17;101917.53;;;3.35;100.00
33189;BME280;52601;53.070;10.600;2023-02-16T02:29:51;101908.03;;;3.31;100.00
33189;BME280;52601;53.070;10.600;2023-02-16T02:35:54;101901.09;;;3.15;100.00
33189;BME280;52601;53.070;10.600;2023-02-16T02:39:14;101914.94;;;3.24;100.00
33189;BME280;52601;53.070;10.600;2023-02-16T02:42:09;101905.41;;;3.13;100.00
33189;BME280;52601;53.070;10.600;2023-02-16T02:45:06;101908.00;;;3.05;100.00
33189;BME280;52601;53.070;10.600;2023-02-16T02:47:53;101909.72;;;3.12;100.00
33189;BME280;52601;53.070;10.600;2023-02-16T02:50:46;101901.13;;;3.13;100.00
33189;BME280;52601;53.070;10.600;2023-02-16T02:54:13;101903.66;;;3.04;100.00
33189;BME280;52601;53.070;10.600;2023-02-16T02:57:20;101908.00;;;3.05;100.00
33189;BME280;52601;53.070;10.600;2023-02-16T03:00:36;101900.22;;;2.99;100.00
33189;BME280;52601;53.070;10.600;2023-02-16T03:03:32;101905.41;;;2.96;100.00
33189;BME280;52601;53.070;10.600;2023-02-16T03:06:22;101897.59;;;2.89;100.00
33189;BME280;52601;53.070;10.600;2023-02-16T03:09:12;101897.63;;;2.93;100.00
33189;BME280;52601;53.070;10.600;2023-02-16T03:11:59;101910.56;;;2.93;100.00
33189;BME280;52601;53.070;10.600;2023-02-16T03:15:08;101904.50;;;2.87;100.00
33189;BME280;52601;53.070;10.600;2023-02-16T03:17:55;101899.31;;;2.81;100.00
33189;BME280;52601;53.070;10.600;2023-02-16T03:21:02;101907.13;;;2.94;100.00
33189;BME280;52601;53.070;10.600;2023-02-16T03:24:08;101902.78;;;2.87;100.00
33189;BME280;52601;53.070;10.600;2023-02-16T03:27:22;101891.56;;;2.93;100.00
33189;BME280;52601;53.070;10.600;2023-02-16T03:30:28;101889.81;;;2.80;100.00
33189;BME280;52601;53.070;10.600;2023-02-16T03:33:14;101888.94;;;2.73;100.00
33189;BME280;52601;53.070;10.600;2023-02-16T03:36:00;101888.06;;;2.70;100.00
33189;BME280;52601;53.070;10.600;2023-02-16T03:38:47;101902.72;;;2.64;100.00
33189;BME280;52601;53.070;10.600;2023-02-16T03:41:37;101882.84;;;2.60;100.00
33189;BME280;52601;53.070;10.600;2023-02-16T03:44:23;101901.03;;;2.68;100.00
33189;BME280;52601;53.070;10.600;2023-02-16T03:47:09;101881.16;;;2.66;100.00
33189;BME280;52601;53.070;10.600;2023-02-16T03:49:55;101884.63;;;2.75;100.00
33189;BME280;52601;53.070;10.600;2023-02-16T03:52:40;101893.31;;;2.86;100.00
33189;BME280;52601;53.070;10.600;2023-02-16T03:55:26;101883.81;;;2.88;100.00
33189;BME280;52601;53.070;10.600;2023-02-16T03:58:14;101873.44;;;2.91;100.00
33189;BME280;52601;53.070;10.600;2023-02-16T04:01:00;101883.81;;;2.91;100.00
33189;BME280;52601;53.070;10.600;2023-02-16T04:03:46;101878.63;;;2.85;100.00
33189;BME280;52601;53.070;10.600;2023-02-16T04:06:32;101876.00;;;2.87;100.00
33189;BME280;52601;53.070;10.600;2023-02-16T04:09:17;101878.63;;;2.93;100.00
33189;BME280;52601;53.070;10.600;2023-02-16T04:12:03;101881.22;;;2.99;100.00
33189;BME280;52601;53.070;10.600;2023-02-16T04:15:14;101876.03;;;2.88;100.00
33189;BME280;52601;53.070;10.600;2023-02-16T04:18:00;101881.19;;;2.85;100.00
33189;BME280;52601;53.070;10.600;2023-02-16T04:20:46;101884.66;;;2.87;100.00
33189;BME280;52601;53.070;10.600;2023-02-16T04:23:31;101876.91;;;2.84;100.00
33189;BME280;52601;53.070;10.600;2023-02-16T04:26:17;101882.91;;;2.85;100.00
33189;BME280;52601;53.070;10.600;2023-02-16T04:29:02;101884.66;;;2.78;100.00
33189;BME280;52601;53.070;10.600;2023-02-16T04:31:48;101871.69;;;2.72;100.00
33189;BME280;52601;53.070;10.600;2023-02-16T04:34:34;101875.13;;;2.71;100.00
33189;BME280;52601;53.070;10.600;2023-02-16T04:37:19;101877.75;;;2.74;100.00
33189;BME280;52601;53.070;10.600;2023-02-16T04:40:07;101867.38;;;2.76;100.00
33189;BME280;52601;53.070;10.600;2023-02-16T04:42:52;101872.53;;;2.63;100.00
33189;BME280;52601;53.070;10.600;2023-02-16T04:45:38;101875.13;;;2.68;100.00
33189;BME280;52601;53.070;10.600;2023-02-16T04:48:24;101866.44;;;2.57;100.00
33189;BME280;52601;53.070;10.600;2023-02-16T04:51:09;101846.63;;;2.67;100.00
33189;BME280;52601;53.070;10.600;2023-02-16T04:53:54;101855.28;;;2.75;100.00
33189;BME280;52601;53.070;10.600;2023-02-16T04:56:43;101861.31;;;2.71;100.00
33189;BME280;52601;53.070;10.600;2023-02-16T04:59:29;101847.50;;;2.69;100.00
33189;BME280;52601;53.070;10.600;2023-02-16T05:02:14;101845.75;;;2.63;100.00
33189;BME280;52601;53.070;10.600;2023-02-16T05:04:59;101845.81;;;2.72;100.00
33189;BME280;52601;53.070;10.600;2023-02-16T05:07:45;101845.75;;;2.63;100.00
33189;BME280;52601;53.070;10.600;2023-02-16T05:10:30;101835.41;;;2.60;100.00
33189;BME280;52601;53.070;10.600;2023-02-16T05:13:16;101835.41;;;2.52;100.00
33189;BME280;52601;53.070;10.600;2023-02-16T05:16:21;101855.25;;;2.52;100.00
33189;BME280;52601;53.070;10.600;2023-02-16T05:19:07;101841.44;;;2.48;100.00
33189;BME280;52601;53.070;10.600;2023-02-16T05:21:53;101839.66;;;2.38;100.00
33189;BME280;52601;53.070;10.600;2023-02-16T05:24:39;101844.81;;;2.35;100.00
33189;BME280;52601;53.070;10.600;2023-02-16T05:27:27;101843.06;;;2.27;100.00
33189;BME280;52601;53.070;10.600;2023-02-16T05:30:13;101858.63;;;2.36;100.00
33189;BME280;52601;53.070;10.600;2023-02-16T05:32:59;101862.00;;;2.21;100.00
33189;BME280;52601;53.070;10.600;2023-02-16T05:35:44;101859.41;;;2.23;100.00
33189;BME280;52601;53.070;10.600;2023-02-16T05:38:30;101868.03;;;2.13;100.00
33189;BME280;52601;53.070;10.600;2023-02-16T05:41:15;101868.03;;;2.16;100.00
33189;BME280;52601;53.070;10.600;2023-02-16T05:44:10;101874.06;;;2.18;100.00
33189;BME280;52601;53.070;10.600;2023-02-16T05:46:56;101860.28;;;2.16;100.00
33189;BME280;52601;53.070;10.600;2023-02-16T05:49:41;101862.91;;;2.31;100.00
33189;BME280;52601;53.070;10.600;2023-02-16T05:52:27;101860.34;;;2.34;100.00
33189;BME280;52601;53.070;10.600;2023-02-16T05:55:12;101862.97;;;2.41;100.00
33189;BME280;52601;53.070;10.600;2023-02-16T05:57:57;101869.91;;;2.51;100.00
33189;BME280;52601;53.070;10.600;2023-02-16T06:00:43;101858.69;;;2.48;100.00
33189;BME280;52601;53.070;10.600;2023-02-16T06:03:28;101858.69;;;2.46;100.00
33189;BME280;52601;53.070;10.600;2023-02-16T06:06:14;101865.56;;;2.49;100.00
33189;BME280;52601;53.070;10.600;2023-02-16T06:09:00;101864.66;;;2.35;100.00
33189;BME280;52601;53.070;10.600;2023-02-16T06:11:46;101865.50;;;2.31;100.00
33189;BME280;52601;53.070;10.600;2023-02-16T06:14:31;101865.53;;;2.32;100.00
33189;BME280;52601;53.070;10.600;2023-02-16T06:17:17;101860.31;;;2.31;100.00
33189;BME280;52601;53.070;10.600;2023-02-16T06:20:03;101855.16;;;2.26;100.00
33189;BME280;52601;53.070;10.600;2023-02-16T06:22:49;101867.22;;;2.26;100.00
33189;BME280;52601;53.070;10.600;2023-02-16T06:25:34;101865.47;;;2.22;100.00
33189;BME280;52601;53.070;10.600;2023-02-16T06:28:20;101869.78;;;2.21;100.00
33189;BME280;52601;53.070;10.600;2023-02-16T06:31:06;101874.13;;;2.28;100.00
33189;BME280;52601;53.070;10.600;2023-02-16T06:33:52;101864.66;;;2.35;100.00
33189;BME280;52601;53.070;10.600;2023-02-16T06:36:38;101870.66;;;2.31;100.00
33189;BME280;52601;53.070;10.600;2023-02-16T06:39:27;101868.97;;;2.37;100.00
33189;BME280;52601;53.070;10.600;2023-02-16T06:42:12;101869.84;;;2.39;100.00
33189;BME280;52601;53.070;10.600;2023-02-16T06:44:58;101881.09;;;2.46;100.00
33189;BME280;52601;53.070;10.600;2023-02-16T06:47:43;101880.22;;;2.44;100.00
33189;BME280;52601;53.070;10.600;2023-02-16T06:50:28;101884.59;;;2.61;100.00
33189;BME280;52601;53.070;10.600;2023-02-16T06:53:14;101875.13;;;2.71;100.00
33189;BME280;52601;53.070;10.600;2023-02-16T06:55:59;101869.97;;;2.74;100.00
33189;BME280;52601;53.070;10.600;2023-02-16T06:58:45;101879.47;;;2.78;100.00
33189;BME280;52601;53.070;10.600;2023-02-16T07:01:31;101872.56;;;2.80;100.00
33189;BME280;52601;53.070;10.600;2023-02-16T07:04:16;101868.28;;;2.90;100.00
33189;BME280;52601;53.070;10.600;2023-02-16T07:07:02;101881.25;;;3.15;100.00
33189;BME280;52601;53.070;10.600;2023-02-16T07:09:49;101876.94;;;3.31;100.00
33189;BME280;52601;53.070;10.600;2023-02-16T07:12:34;101870.03;;;3.33;100.00
33189;BME280;52601;53.070;10.600;2023-02-16T07:15:20;101866.56;;;3.49;100.00
33189;BME280;52601;53.070;10.600;2023-02-16T07:18:05;101870.03;;;3.56;100.00
33189;BME280;52601;53.070;10.600;2023-02-16T07:20:51;101866.56;;;3.57;100.00
33189;BME280;52601;53.070;10.600;2023-02-16T07:23:37;101869.13;;;3.63;100.00
33189;BME280;52601;53.070;10.600;2023-02-16T07:26:22;101871.72;;;3.81;100.00
33189;BME280;52601;53.070;10.600;2023-02-16T07:29:08;101867.41;;;3.80;100.00
33189;BME280;52601;53.070;10.600;2023-02-16T07:31:53;101877.72;;;4.01;100.00
33189;BME280;52601;53.070;10.600;2023-02-16T07:34:41;101876.81;;;4.14;100.00
33189;BME280;52601;53.070;10.600;2023-02-16T07:37:26;101869.69;;;4.58;100.00
33189;BME280;52601;53.070;10.600;2023-02-16T07:40:12;101872.69;;;5.30;100.00
33189;BME280;52601;53.070;10.600;2023-02-16T07:43:02;101878.31;;;5.84;100.00
33189;BME280;52601;53.070;10.600;2023-02-16T07:45:48;101870.59;;;6.48;100.00
33189;BME280;52601;53.070;10.600;2023-02-16T07:48:34;101865.56;;;6.98;96.52
33189;BME280;52601;53.070;10.600;2023-02-16T07:51:23;101872.03;;;7.80;91.51
33189;BME280;52601;53.070;10.600;2023-02-16T07:54:09;101861.72;;;8.18;87.45
33189;BME280;52601;53.070;10.600;2023-02-16T07:56:55;101871.25;;;8.21;83.73
33189;BME280;52601;53.070;10.600;2023-02-16T07:59:41;101875.09;;;8.02;84.59
33189;BME280;52601;53.070;10.600;2023-02-16T08:02:26;101873.13;;;8.97;82.24
33189;BME280;52601;53.070;10.600;2023-02-16T08:05:12;101876.97;;;8.41;81.86
33189;BME280;52601;53.070;10.600;2023-02-16T08:07:58;101870.34;;;7.76;83.97
33189;BME280;52601;53.070;10.600;2023-02-16T08:10:43;101871.47;;;7.11;86.70
33189;BME280;52601;53.070;10.600;2023-02-16T08:13:29;101863.69;;;7.07;90.23
33189;BME280;52601;53.070;10.600;2023-02-16T08:16:17;101860.25;;;7.59;88.46
33189;BME280;52601;53.070;10.600;2023-02-16T08:19:03;101851.59;;;7.54;87.37
33189;BME280;52601;53.070;10.600;2023-02-16T08:21:49;101854.28;;;7.50;87.16
33189;BME280;52601;53.070;10.600;2023-02-16T08:24:35;101862.09;;;7.53;89.47
33189;BME280;52601;53.070;10.600;2023-02-16T08:27:21;101873.13;;;8.14;86.73
33189;BME280;52601;53.070;10.600;2023-02-16T08:30:07;101866.66;;;8.75;84.23
33189;BME280;52601;53.070;10.600;2023-02-16T08:32:57;101857.13;;;9.09;80.64
33189;BME280;52601;53.070;10.600;2023-02-16T08:35:45;101858.31;;;8.96;80.45
33189;BME280;52601;53.070;10.600;2023-02-16T08:38:31;101852.72;;;9.12;80.47
33189;BME280;52601;53.070;10.600;2023-02-16T08:41:20;101852.00;;;10.37;76.58
33189;BME280;52601;53.070;10.600;2023-02-16T08:44:07;101850.69;;;10.52;74.39
33189;BME280;52601;53.070;10.600;2023-02-16T08:46:54;101854.31;;;12.54;67.72
33189;BME280;52601;53.070;10.600;2023-02-16T08:49:40;101847.50;;;12.72;64.61
33189;BME280;52601;53.070;10.600;2023-02-16T08:52:26;101848.97;;;13.44;63.65
33189;BME280;52601;53.070;10.600;2023-02-16T08:55:12;101846.94;;;14.68;60.48
33189;BME280;52601;53.070;10.600;2023-02-16T08:57:58;101828.03;;;13.61;61.52
33189;BME280;52601;53.070;10.600;2023-02-16T09:00:45;101827.13;;;15.31;57.43
33189;BME280;52601;53.070;10.600;2023-02-16T09:03:31;101836.59;;;15.18;56.28
33189;BME280;52601;53.070;10.600;2023-02-16T09:06:19;101828.44;;;15.22;56.13
33189;BME280;52601;53.070;10.600;2023-02-16T09:09:06;101833.25;;;12.31;62.99
33189;BME280;52601;53.070;10.600;2023-02-16T09:11:52;101838.38;;;12.11;66.07
33189;BME280;52601;53.070;10.600;2023-02-16T09:14:38;101839.41;;;11.58;68.46
33189;BME280;52601;53.070;10.600;2023-02-16T09:17:24;101837.31;;;11.69;68.00
33189;BME280;52601;53.070;10.600;2023-02-16T09:20:11;101839.25;;;11.36;70.97
33189;BME280;52601;53.070;10.600;2023-02-16T09:22:56;101849.84;;;12.10;69.73
33189;BME280;52601;53.070;10.600;2023-02-16T09:25:42;101843.88;;;12.05;66.76
33189;BME280;52601;53.070;10.600;2023-02-16T09:28:28;101847.66;;;11.21;72.88
33189;BME280;52601;53.070;10.600;2023-02-16T09:31:18;101844.72;;;11.30;71.50
33189;BME280;52601;53.070;10.600;2023-02-16T09:34:19;101842.03;;;10.78;71.96
33189;BME280;52601;53.070;10.600;2023-02-16T09:37:05;101854.69;;;10.93;74.93
33189;BME280;52601;53.070;10.600;2023-02-16T09:39:51;101855.78;;;10.27;74.61
33189;BME280;52601;53.070;10.600;2023-02-16T09:43:03;101871.13;;;10.10;75.09
33189;BME280;52601;53.070;10.600;2023-02-16T09:45:52;101851.66;;;9.87;76.41
33189;BME280;52601;53.070;10.600;2023-02-16T09:48:45;101864.44;;;9.65;75.67
33189;BME280;52601;53.070;10.600;2023-02-16T09:51:36;101860.78;;;9.72;78.99
33189;BME280;52601;53.070;10.600;2023-02-16T09:54:43;101864.66;;;9.57;80.47
33189;BME280;52601;53.070;10.600;2023-02-16T09:57:59;101859.81;;;9.42;78.92
33189;BME280;52601;53.070;10.600;2023-02-16T10:00:53;101867.31;;;9.21;78.41
33189;BME280;52601;53.070;10.600;2023-02-16T10:10:10;101861.53;;;9.77;76.69
33189;BME280;52601;53.070;10.600;2023-02-16T10:13:05;101857.41;;;9.33;77.95
33189;BME280;52601;53.070;10.600;2023-02-16T10:15:55;101859.84;;;9.41;78.37
33189;BME280;52601;53.070;10.600;2023-02-16T10:18:46;101846.41;;;9.19;78.22
33189;BME280;52601;53.070;10.600;2023-02-16T10:21:33;101843.84;;;9.18;79.52
33189;BME280;52601;53.070;10.600;2023-02-16T10:24:20;101850.78;;;9.20;79.79
33189;BME280;52601;53.070;10.600;2023-02-16T10:27:11;101863.78;;;8.87;80.47
33189;BME280;52601;53.070;10.600;2023-02-16T10:29:58;101867.50;;;8.77;82.62
33189;BME280;52601;53.070;10.600;2023-02-16T10:32:59;101867.91;;;8.95;80.42
33189;BME280;52601;53.070;10.600;2023-02-16T10:35:53;101849.81;;;9.58;80.11
33189;BME280;52601;53.070;10.600;2023-02-16T10:48:03;101850.94;;;10.14;76.09
33189;BME280;52601;53.070;10.600;2023-02-16T10:51:11;101854.16;;;10.53;74.45
33189;BME280;52601;53.070;10.600;2023-02-16T10:54:01;101849.13;;;10.74;75.42
33189;BME280;52601;53.070;10.600;2023-02-16T10:56:57;101857.19;;;10.96;73.97
33189;BME280;52601;53.070;10.600;2023-02-16T10:59:45;101846.75;;;10.94;74.41
33189;BME280;52601;53.070;10.600;2023-02-16T11:02:37;101841.22;;;11.82;70.84
33189;BME280;52601;53.070;10.600;2023-02-16T11:08:16;101834.88;;;12.80;67.84
33189;BME280;52601;53.070;10.600;2023-02-16T11:11:08;101828.19;;;14.17;64.53
33189;BME280;52601;53.070;10.600;2023-02-16T11:14:28;101829.25;;;16.74;57.53
33189;BME280;52601;53.070;10.600;2023-02-16T11:17:16;101824.88;;;16.57;53.49
33189;BME280;52601;53.070;10.600;2023-02-16T11:20:05;101823.72;;;15.29;56.00
33189;BME280;52601;53.070;10.600;2023-02-16T11:22:51;101831.16;;;13.29;61.55
33189;BME280;52601;53.070;10.600;2023-02-16T11:25:37;101819.66;;;12.88;66.77
33189;BME280;52601;53.070;10.600;2023-02-16T11:28:36;101828.53;;;12.85;66.20
33189;BME280;52601;53.070;10.600;2023-02-16T11:31:38;101829.13;;;12.47;68.64
33189;BME280;52601;53.070;10.600;2023-02-16T11:34:32;101828.97;;;12.52;70.91
33189;BME280;52601;53.070;10.600;2023-02-16T11:37:25;101832.00;;;12.64;67.87
33189;BME280;52601;53.070;10.600;2023-02-16T11:43:03;101829.72;;;12.32;73.58
33189;BME280;52601;53.070;10.600;2023-02-16T11:46:07;101822.75;;;12.08;71.44
33189;BME280;52601;53.070;10.600;2023-02-16T11:48:56;101817.31;;;11.63;72.26
33189;BME280;52601;53.070;10.600;2023-02-16T11:51:41;101832.81;;;11.97;74.89
33189;BME280;52601;53.070;10.600;2023-02-16T11:54:26;101826.97;;;11.89;74.50
33189;BME280;52601;53.070;10.600;2023-02-16T11:57:12;101823.25;;;11.70;73.14
33189;BME280;52601;53.070;10.600;2023-02-16T12:00:23;101828.59;;;11.91;73.59
33189;BME280;52601;53.070;10.600;2023-02-16T12:03:24;101828.09;;;12.05;74.40
33189;BME280;52601;53.070;10.600;2023-02-16T12:06:29;101829.66;;;12.34;73.10
33189;BME280;52601;53.070;10.600;2023-02-16T12:12:54;101818.38;;;12.53;71.59
33189;BME280;52601;53.070;10.600;2023-02-16T12:19:15;101805.38;;;12.04;73.37
33189;BME280;52601;53.070;10.600;2023-02-16T12:25:36;101798.00;;;12.13;72.34
33189;BME280;52601;53.070;10.600;2023-02-16T12:28:48;101785.50;;;13.08;70.84
33189;BME280;52601;53.070;10.600;2023-02-16T12:32:09;101797.53;;;13.55;68.01
33189;BME280;52601;53.070;10.600;2023-02-16T12:35:17;101795.09;;;13.51;68.25
33189;BME280;52601;53.070;10.600;2023-02-16T12:38:50;101796.78;;;12.88;69.46
33189;BME280;52601;53.070;10.600;2023-02-16T12:44:54;101797.13;;;12.13;73.67
33189;BME280;52601;53.070;10.600;2023-02-16T12:47:59;101789.28;;;12.79;75.47
33189;BME280;52601;53.070;10.600;2023-02-16T12:50:47;101793.75;;;12.99;73.58
33189;BME280;52601;53.070;10.600;2023-02-16T12:53:49;101798.38;;;12.92;71.88
33189;BME280;52601;53.070;10.600;2023-02-16T12:56:44;101781.28;;;12.38;71.17
33189;BME280;52601;53.070;10.600;2023-02-16T12:59:38;101787.66;;;12.32;73.59
33189;BME280;52601;53.070;10.600;2023-02-16T13:02:31;101783.59;;;12.24;72.98
33189;BME280;52601;53.070;10.600;2023-02-16T13:05:24;101786.44;;;11.94;75.89
33189;BME280;52601;53.070;10.600;2023-02-16T13:08:19;101789.25;;;11.64;78.10
33189;BME280;52601;53.070;10.600;2023-02-16T13:11:22;101778.91;;;11.35;80.40
33189;BME280;52601;53.070;10.600;2023-02-16T13:14:15;101782.66;;;11.27;81.51
33189;BME280;52601;53.070;10.600;2023-02-16T13:17:05;101782.50;;;11.06;84.19
33189;BME280;52601;53.070;10.600;2023-02-16T13:19:54;101773.19;;;10.97;85.35
33189;BME280;52601;53.070;10.600;2023-02-16T13:26:06;101777.78;;;11.17;87.75
33189;BME280;52601;53.070;10.600;2023-02-16T13:39:07;101767.78;;;11.02;86.13
33189;BME280;52601;53.070;10.600;2023-02-16T13:42:33;101765.25;;;10.99;85.80
33189;BME280;52601;53.070;10.600;2023-02-16T13:45:39;101761.91;;;11.71;84.19
33189;BME280;52601;53.070;10.600;2023-02-16T13:48:29;101744.22;;;12.22;80.34
33189;BME280;52601;53.070;10.600;2023-02-16T13:51:23;101757.59;;;13.04;77.74
33189;BME280;52601;53.070;10.600;2023-02-16T13:54:24;101737.47;;;14.39;70.48
33189;BME280;52601;53.070;10.600;2023-02-16T13:57:13;101740.81;;;14.43;69.76
33189;BME280;52601;53.070;10.600;2023-02-16T14:00:02;101747.28;;;13.60;69.49
33189;BME280;52601;53.070;10.600;2023-02-16T14:02:53;101734.00;;;12.15;72.22
33189;BME280;52601;53.070;10.600;2023-02-16T14:05:47;101744.41;;;11.70;76.43
33189;BME280;52601;53.070;10.600;2023-02-16T14:08:33;101740.19;;;11.66;77.82
33189;BME280;52601;53.070;10.600;2023-02-16T14:11:19;101732.16;;;11.93;75.74
33189;BME280;52601;53.070;10.600;2023-02-16T14:20:24;101727.34;;;12.49;74.12
33189;BME280;52601;53.070;10.600;2023-02-16T14:23:26;101725.53;;;12.06;73.52
33189;BME280;52601;53.070;10.600;2023-02-16T14:26:12;101708.75;;;11.63;76.10
33189;BME280;52601;53.070;10.600;2023-02-16T14:29:07;101708.06;;;11.82;76.44
33189;BME280;52601;53.070;10.600;2023-02-16T14:31:58;101691.47;;;12.03;73.14
33189;BME280;52601;53.070;10.600;2023-02-16T14:37:39;101694.19;;;12.45;72.59
33189;BME280;52601;53.070;10.600;2023-02-16T14:43:23;101709.06;;;11.78;74.02
33189;BME280;52601;53.070;10.600;2023-02-16T14:52:21;101708.50;;;11.46;79.22
33189;BME280;52601;53.070;10.600;2023-02-16T14:55:37;101708.31;;;11.25;79.79
33189;BME280;52601;53.070;10.600;2023-02-16T14:58:55;101706.06;;;11.40;77.75
33189;BME280;52601;53.070;10.600;2023-02-16T15:01:45;101695.19;;;11.25;79.10
33189;BME280;52601;53.070;10.600;2023-02-16T15:04:32;101690.38;;;11.38;77.17
33189;BME280;52601;53.070;10.600;2023-02-16T15:07:19;101698.09;;;11.18;78.20
33189;BME280;52601;53.070;10.600;2023-02-16T15:10:06;101696.50;;;11.14;79.11
33189;BME280;52601;53.070;10.600;2023-02-16T15:12:54;101684.44;;;11.08;78.55
33189;BME280;52601;53.070;10.600;2023-02-16T15:15:44;101691.03;;;10.95;80.58
33189;BME280;52601;53.070;10.600;2023-02-16T15:18:35;101691.66;;;11.02;80.51
33189;BME280;52601;53.070;10.600;2023-02-16T15:21:25;101701.88;;;10.85;82.05
33189;BME280;52601;53.070;10.600;2023-02-16T15:24:22;101702.03;;;10.80;81.31
33189;BME280;52601;53.070;10.600;2023-02-16T15:27:19;101689.44;;;10.65;83.06
33189;BME280;52601;53.070;10.600;2023-02-16T15:33:10;101708.47;;;10.72;83.36
33189;BME280;52601;53.070;10.600;2023-02-16T15:36:19;101678.59;;;10.48;83.29
33189;BME280;52601;53.070;10.600;2023-02-16T15:39:11;101689.06;;;10.50;82.67
33189;BME280;52601;53.070;10.600;2023-02-16T15:42:30;101691.03;;;10.43;82.54
33189;BME280;52601;53.070;10.600;2023-02-16T15:45:31;101677.34;;;10.33;83.16
33189;BME280;52601;53.070;10.600;2023-02-16T15:48:34;101675.34;;;10.42;83.36
33189;BME280;52601;53.070;10.600;2023-02-16T15:51:30;101672.47;;;10.49;82.74
33189;BME280;52601;53.070;10.600;2023-02-16T15:54:25;101675.47;;;10.37;84.06
33189;BME280;52601;53.070;10.600;2023-02-16T15:57:30;101670.28;;;10.35;83.75
33189;BME280;52601;53.070;10.600;2023-02-16T16:00:19;101682.16;;;10.47;83.96
33189;BME280;52601;53.070;10.600;2023-02-16T16:03:07;101684.84;;;10.46;84.90